Time;durP1;ratioP1;P1;durP2;ratioP2;P2;SDS_P1;SDS_P2;PMS_P1;PMS_P2;Temp;Humidity;BMP_temperature;BMP_pressure;BME280_temperature;BME280_humidity;BME280_pressure;Samples;Min_cycle;Max_cycle;Signal;HPM_P1;HPM_P2
2022/09/01 00:00:56;;;;;;;27.48;12.73;;;;;;;;;;10607706;27;20049;-74
2022/09/01 00:06:02;;;;;;;27.05;12.68;;;;;;;;;;10604939;27;20054;-74
2022/09/01 00:11:12;;;;;;;26.20;12.68;;;;;;;;;;10615099;27;20147;-73
2022/09/01 00:16:22;;;;;;;28.50;12.48;;;;;;;;;;10574798;27;20047;-77
2022/09/01 00:21:27;;;;;;;28.98;12.30;;;;;;;;;;10608047;27;20039;-73
2022/09/01 00:26:33;;;;;;;27.20;13.50;;;;;;;;;;10607740;27;20468;-74
2022/09/01 00:31:38;;;;;;;24.30;12.10;;;;;;;;;;10610757;27;20035;-75
2022/09/01 00:36:46;;;;;;;26.10;13.05;;;;;;;;;;10588044;27;20047;-75
2022/09/01 00:41:52;;;;;;;26.92;13.13;;;;;;;;;;10593145;27;20045;-76
2022/09/01 00:46:56;;;;;;;26.58;13.02;;;;;;;;;;10589986;27;20142;-75
2022/09/01 00:52:02;;;;;;;26.35;13.18;;;;;;;;;;10610063;27;20039;-75
2022/09/01 00:57:11;;;;;;;31.13;14.80;;;;;;;;;;10588239;27;20038;-75
2022/09/01 01:02:24;;;;;;;29.52;13.43;;;;;;;;;;10585179;27;20050;-75
2022/09/01 01:07:32;;;;;;;29.77;13.20;;;;;;;;;;10607917;27;20043;-75
2022/09/01 01:12:42;;;;;;;27.50;12.75;;;;;;;;;;10559822;28;20036;-76
2022/09/01 01:17:49;;;;;;;31.30;13.57;;;;;;;;;;10559815;28;20055;-76
2022/09/01 01:23:05;;;;;;;32.15;13.55;;;;;;;;;;10541014;28;20456;-75
2022/09/01 01:28:14;;;;;;;31.17;13.50;;;;;;;;;;10544334;28;20413;-75
2022/09/01 01:33:21;;;;;;;27.42;11.82;;;;;;;;;;10570572;27;20514;-74
2022/09/01 01:38:28;;;;;;;29.17;12.70;;;;;;;;;;10585098;27;20051;-75
2022/09/01 01:43:34;;;;;;;34.17;14.30;;;;;;;;;;10602841;27;20035;-75
2022/09/01 01:48:45;;;;;;;32.75;14.13;;;;;;;;;;10606379;27;20051;-76
2022/09/01 01:53:52;;;;;;;31.55;13.45;;;;;;;;;;10608346;27;20035;-76
2022/09/01 01:59:03;;;;;;;;;;;;;;;;;;10606030;27;20043;-75
2022/09/01 02:04:15;;;;;;;30.77;14.20;;;;;;;;;;10587976;27;19919;-75
2022/09/01 02:09:22;;;;;;;30.40;14.02;;;;;;;;;;10573843;27;20213;-75
2022/09/01 02:14:25;;;;;;;27.33;13.38;;;;;;;;;;10588072;27;20055;-76
2022/09/01 02:19:31;;;;;;;29.80;13.23;;;;;;;;;;10574660;27;20088;-76
2022/09/01 02:24:35;;;;;;;27.38;13.52;;;;;;;;;;10603930;28;20054;-75
2022/09/01 02:29:39;;;;;;;31.88;13.65;;;;;;;;;;10606167;27;20050;-74
2022/09/01 02:34:52;;;;;;;27.85;12.82;;;;;;;;;;10586484;27;20039;-75
2022/09/01 02:39:59;;;;;;;32.05;13.38;;;;;;;;;;10582625;28;20128;-75
2022/09/01 02:45:15;;;;;;;30.92;13.20;;;;;;;;;;10585326;28;20376;-76
2022/09/01 02:50:21;;;;;;;34.95;15.10;;;;;;;;;;10591254;28;20047;-74
2022/09/01 02:55:25;;;;;;;35.63;14.98;;;;;;;;;;10600041;28;20043;-74
2022/09/01 03:00:31;;;;;;;30.63;13.55;;;;;;;;;;10603118;27;20031;-74
2022/09/01 03:05:43;;;;;;;30.63;14.35;;;;;;;;;;10602644;27;20043;-75
2022/09/01 03:10:48;;;;;;;33.88;14.35;;;;;;;;;;10583760;28;20039;-75
2022/09/01 03:15:54;;;;;;;34.58;15.70;;;;;;;;;;10611782;27;20035;-75
2022/09/01 03:20:59;;;;;;;38.47;15.18;;;;;;;;;;10612862;27;20043;-75
2022/09/01 03:26:04;;;;;;;34.17;14.65;;;;;;;;;;10610225;27;20047;-75
2022/09/01 03:31:14;;;;;;;40.63;15.30;;;;;;;;;;10597451;27;20505;-75
2022/09/01 03:36:26;;;;;;;39.97;16.33;;;;;;;;;;10607408;27;20054;-77
2022/09/01 03:41:30;;;;;;;38.45;14.90;;;;;;;;;;10611298;27;20103;-74
2022/09/01 03:46:35;;;;;;;34.75;14.00;;;;;;;;;;10612726;27;20533;-74
2022/09/01 03:51:46;;;;;;;35.08;14.52;;;;;;;;;;10593080;27;20499;-74
2022/09/01 03:56:58;;;;;;;34.78;14.73;;;;;;;;;;10610459;27;20058;-75
2022/09/01 04:02:07;;;;;;;35.50;15.40;;;;;;;;;;10589994;27;20066;-75
2022/09/01 04:07:17;;;;;;;42.80;18.35;;;;;;;;;;10609563;27;20053;-75
2022/09/01 04:12:21;;;;;;;35.67;15.38;;;;;;;;;;10605749;27;20045;-75
2022/09/01 04:22:57;;;;;;;36.15;15.07;;;;;;;;;;10588967;27;20039;-75
2022/09/01 04:28:13;;;;;;;35.15;15.43;;;;;;;;;;10593442;27;20053;-74
2022/09/01 04:33:18;;;;;;;37.80;14.32;;;;;;;;;;10590984;27;20047;-74
2022/09/01 04:38:28;;;;;;;35.95;14.07;;;;;;;;;;10610384;27;20054;-73
2022/09/01 04:43:33;;;;;;;36.30;14.88;;;;;;;;;;10590136;27;20400;-74
2022/09/01 04:48:37;;;;;;;31.92;13.93;;;;;;;;;;10592722;27;20035;-75
2022/09/01 04:53:47;;;;;;;37.72;15.48;;;;;;;;;;10606696;27;20062;-73
2022/09/01 04:58:52;;;;;;;33.20;14.40;;;;;;;;;;10588329;27;20061;-74
2022/09/01 05:04:00;;;;;;;37.97;16.25;;;;;;;;;;10607085;27;20135;-75
2022/09/01 05:09:10;;;;;;;38.08;16.08;;;;;;;;;;10619249;27;20048;-74
2022/09/01 05:14:17;;;;;;;31.23;14.30;;;;;;;;;;10609354;27;20066;-74
2022/09/01 05:19:27;;;;;;;32.83;14.40;;;;;;;;;;10607285;27;20143;-75
2022/09/01 05:24:40;;;;;;;30.70;13.65;;;;;;;;;;10598243;27;20039;-74
2022/09/01 05:29:48;;;;;;;32.42;14.48;;;;;;;;;;10605502;27;20084;-74
2022/09/01 05:34:55;;;;;;;32.42;14.35;;;;;;;;;;10611704;27;20039;-75
2022/09/01 05:40:02;;;;;;;32.55;13.88;;;;;;;;;;10586853;27;20035;-76
2022/09/01 05:50:27;;;;;;;33.15;14.27;;;;;;;;;;10606352;27;20334;-76
2022/09/01 05:55:47;;;;;;;27.48;13.52;;;;;;;;;;10603580;27;20110;-74
2022/09/01 06:00:52;;;;;;;25.60;11.88;;;;;;;;;;10608639;27;20471;-75
2022/09/01 06:06:01;;;;;;;18.38;8.52;;;;;;;;;;10562462;27;20035;-75
2022/09/01 06:11:11;;;;;;;22.08;10.05;;;;;;;;;;10597989;27;20589;-75
2022/09/01 06:16:19;;;;;;;10.85;5.28;;;;;;;;;;10571745;27;20115;-74
2022/09/01 06:21:23;;;;;;;17.33;7.55;;;;;;;;;;10610480;27;20035;-74
2022/09/01 06:26:31;;;;;;;15.15;8.18;;;;;;;;;;10610835;27;20031;-75
2022/09/01 06:31:41;;;;;;;15.68;7.97;;;;;;;;;;10601552;27;20503;-75
2022/09/01 06:36:47;;;;;;;13.90;7.60;;;;;;;;;;10589874;28;20041;-74
2022/09/01 06:42:02;;;;;;;12.27;6.15;;;;;;;;;;10563835;28;20040;-75
2022/09/01 06:47:12;;;;;;;16.70;7.68;;;;;;;;;;10583103;27;20487;-74
2022/09/01 06:52:16;;;;;;;15.35;7.63;;;;;;;;;;10605051;27;20564;-75
2022/09/01 06:57:26;;;;;;;16.17;8.93;;;;;;;;;;10581974;27;20051;-74
2022/09/01 07:02:53;;;;;;;17.02;9.07;;;;;;;;;;10583833;27;20051;-75
2022/09/01 07:07:57;;;;;;;17.77;9.15;;;;;;;;;;10606632;27;20126;-75
2022/09/01 07:13:17;;;;;;;14.07;6.80;;;;;;;;;;10599006;27;20610;-76
2022/09/01 07:18:32;;;;;;;16.25;8.75;;;;;;;;;;10584970;27;20058;-75
2022/09/01 07:23:39;;;;;;;16.75;9.10;;;;;;;;;;10595607;27;20130;-76
2022/09/01 07:29:11;;;;;;;14.27;8.32;;;;;;;;;;10587300;27;20050;-75
2022/09/01 07:34:15;;;;;;;16.08;8.90;;;;;;;;;;10601933;27;20254;-75
2022/09/01 07:39:45;;;;;;;15.95;9.00;;;;;;;;;;10576193;27;20136;-75
2022/09/01 07:44:59;;;;;;;9.30;5.20;;;;;;;;;;10574119;27;20107;-75
2022/09/01 07:50:25;;;;;;;16.23;8.10;;;;;;;;;;10579505;27;20700;-74
2022/09/01 07:55:51;;;;;;;16.45;8.48;;;;;;;;;;10619012;27;20184;-75
2022/09/01 08:00:58;;;;;;;12.70;6.82;;;;;;;;;;10600226;27;20055;-76
2022/09/01 08:06:07;;;;;;;9.32;5.43;;;;;;;;;;10574365;27;20109;-75
2022/09/01 08:11:17;;;;;;;11.27;6.65;;;;;;;;;;10581882;27;20050;-74
2022/09/01 08:22:07;;;;;;;10.30;6.95;;;;;;;;;;10592867;27;20495;-74
2022/09/01 08:27:11;;;;;;;9.63;5.97;;;;;;;;;;10582445;27;20039;-76
2022/09/01 08:32:23;;;;;;;10.25;6.22;;;;;;;;;;10585751;27;20047;-76
2022/09/01 08:37:28;;;;;;;11.57;6.82;;;;;;;;;;10596727;27;20123;-76
2022/09/01 08:42:40;;;;;;;11.88;5.85;;;;;;;;;;10579821;27;20039;-74
2022/09/01 08:47:48;;;;;;;10.07;6.20;;;;;;;;;;10563553;27;20042;-73
2022/09/01 08:53:18;;;;;;;8.18;5.05;;;;;;;;;;10578970;27;20106;-74
2022/09/01 08:58:23;;;;;;;11.57;6.00;;;;;;;;;;10572372;27;20039;-73
2022/09/01 09:03:32;;;;;;;8.23;5.38;;;;;;;;;;10587984;27;20054;-74
2022/09/01 09:08:57;;;;;;;11.35;5.78;;;;;;;;;;10587965;27;20046;-74
2022/09/01 09:14:04;;;;;;;11.02;6.90;;;;;;;;;;10596146;27;20046;-74
2022/09/01 09:19:17;;;;;;;10.70;5.75;;;;;;;;;;10580193;27;20041;-74
2022/09/01 09:24:25;;;;;;;11.00;6.40;;;;;;;;;;10565276;27;20046;-76
2022/09/01 09:29:45;;;;;;;11.57;5.97;;;;;;;;;;10601078;27;20501;-74
2022/09/01 09:34:54;;;;;;;8.38;5.63;;;;;;;;;;10598172;27;20177;-74
2022/09/01 09:40:06;;;;;;;7.65;5.63;;;;;;;;;;10581717;27;20071;-76
2022/09/01 09:45:23;;;;;;;11.88;7.13;;;;;;;;;;10596793;27;20030;-75
2022/09/01 09:50:39;;;;;;;8.38;6.18;;;;;;;;;;10595364;27;20458;-75
2022/09/01 09:55:57;;;;;;;9.00;6.82;;;;;;;;;;10596472;27;20143;-77
2022/09/01 10:06:33;;;;;;;9.10;6.20;;;;;;;;;;10598658;27;20134;-73
2022/09/01 10:11:41;;;;;;;7.07;6.22;;;;;;;;;;10578127;27;20063;-73
2022/09/01 10:16:46;;;;;;;7.22;5.05;;;;;;;;;;10597854;27;20036;-75
2022/09/01 10:22:01;;;;;;;6.18;4.45;;;;;;;;;;10577355;27;20135;-75
2022/09/01 10:27:09;;;;;;;5.33;3.90;;;;;;;;;;10579873;28;20135;-74
2022/09/01 10:32:31;;;;;;;5.35;4.13;;;;;;;;;;10580354;27;20404;-74
2022/09/01 10:37:49;;;;;;;5.40;4.70;;;;;;;;;;10597899;27;20130;-75
2022/09/01 10:42:55;;;;;;;8.48;4.00;;;;;;;;;;10596891;27;20035;-75
2022/09/01 10:48:18;;;;;;;4.70;3.88;;;;;;;;;;10581694;27;20054;-74
2022/09/01 10:53:46;;;;;;;5.53;3.60;;;;;;;;;;10578420;28;20081;-76
2022/09/01 10:59:06;;;;;;;3.72;3.00;;;;;;;;;;10578830;27;20070;-76
2022/09/01 11:04:54;;;;;;;4.35;3.00;;;;;;;;;;10594521;27;20134;-75
2022/09/01 11:10:37;;;;;;;3.70;3.08;;;;;;;;;;10596221;28;20435;-77
2022/09/01 11:15:46;;;;;;;4.38;2.70;;;;;;;;;;10588269;27;20539;-75
2022/09/01 11:20:55;;;;;;;3.42;2.78;;;;;;;;;;10580242;27;20488;-74
2022/09/01 11:26:03;;;;;;;3.38;2.90;;;;;;;;;;10564532;27;20035;-74
2022/09/01 11:31:34;;;;;;;3.53;2.85;;;;;;;;;;10597112;27;20039;-74
2022/09/01 11:36:49;;;;;;;3.45;2.58;;;;;;;;;;10602473;27;20039;-77
2022/09/01 11:42:02;;;;;;;2.72;2.53;;;;;;;;;;10605752;27;20369;-74
2022/09/01 11:47:12;;;;;;;4.18;2.70;;;;;;;;;;10583950;27;20037;-75
2022/09/01 11:52:28;;;;;;;12.70;7.10;;;;;;;;;;10582502;27;20055;-75
2022/09/01 11:57:36;;;;;;;5.22;2.30;;;;;;;;;;10577997;27;20387;-76
2022/09/01 12:02:47;;;;;;;5.97;4.53;;;;;;;;;;10586341;27;20047;-74
2022/09/01 12:07:54;;;;;;;2.97;2.47;;;;;;;;;;10587997;27;20582;-75
2022/09/01 12:13:10;;;;;;;2.88;2.60;;;;;;;;;;10605488;27;20069;-74
2022/09/01 12:18:27;;;;;;;5.22;3.15;;;;;;;;;;10603998;27;20047;-75
2022/09/01 12:23:33;;;;;;;4.70;3.00;;;;;;;;;;10584033;27;20039;-73
2022/09/01 12:28:41;;;;;;;3.13;2.50;;;;;;;;;;10602930;27;20065;-74
2022/09/01 12:33:52;;;;;;;6.38;3.30;;;;;;;;;;10600850;27;20448;-74
2022/09/01 12:38:57;;;;;;;4.05;2.60;;;;;;;;;;10598444;27;20154;-74
2022/09/01 12:44:20;;;;;;;4.28;3.03;;;;;;;;;;10602237;27;20114;-73
2022/09/01 12:49:38;;;;;;;4.07;2.70;;;;;;;;;;10600550;27;20069;-74
2022/09/01 12:54:55;;;;;;;3.72;2.35;;;;;;;;;;10597608;27;20058;-75
2022/09/01 13:00:16;;;;;;;3.88;2.30;;;;;;;;;;10596421;27;20079;-75
2022/09/01 13:05:36;;;;;;;5.60;2.60;;;;;;;;;;10564269;27;20121;-77
2022/09/01 13:10:55;;;;;;;4.65;2.53;;;;;;;;;;10593412;27;20388;-76
2022/09/01 13:16:09;;;;;;;4.05;2.50;;;;;;;;;;10595655;27;20140;-76
2022/09/01 13:21:19;;;;;;;4.57;2.55;;;;;;;;;;10582549;27;20050;-77
2022/09/01 13:26:30;;;;;;;3.03;2.38;;;;;;;;;;10597702;27;20135;-77
2022/09/01 13:31:35;;;;;;;3.78;2.10;;;;;;;;;;10596401;27;20583;-76
2022/09/01 13:36:40;;;;;;;6.68;2.20;;;;;;;;;;10581549;27;20043;-76
2022/09/01 13:41:54;;;;;;;5.18;2.70;;;;;;;;;;10579594;27;20092;-76
2022/09/01 13:47:06;;;;;;;7.93;4.13;;;;;;;;;;10575233;27;20496;-76
2022/09/01 13:52:34;;;;;;;4.40;2.13;;;;;;;;;;10582902;27;20046;-77
2022/09/01 13:57:44;;;;;;;3.00;2.40;;;;;;;;;;10591685;27;20075;-77
2022/09/01 14:02:58;;;;;;;2.95;2.35;;;;;;;;;;10599353;27;20046;-76
2022/09/01 14:08:03;;;;;;;3.05;2.42;;;;;;;;;;10580597;27;20046;-76
2022/09/01 14:13:21;;;;;;;3.20;2.45;;;;;;;;;;10581959;27;20043;-76
2022/09/01 14:18:30;;;;;;;2.20;2.00;;;;;;;;;;10560365;27;20152;-77
2022/09/01 14:23:38;;;;;;;3.22;2.22;;;;;;;;;;10575927;27;20054;-76
2022/09/01 14:28:50;;;;;;;3.67;2.28;;;;;;;;;;10581046;28;20063;-75
2022/09/01 14:33:55;;;;;;;2.58;2.28;;;;;;;;;;10569720;27;20582;-75
2022/09/01 14:39:00;;;;;;;3.92;2.40;;;;;;;;;;10579389;27;20035;-76
2022/09/01 14:44:12;;;;;;;4.63;2.13;;;;;;;;;;10581412;28;20047;-76
2022/09/01 14:49:19;;;;;;;4.03;2.25;;;;;;;;;;10594400;27;20114;-75
2022/09/01 14:54:27;;;;;;;2.88;2.25;;;;;;;;;;10596930;27;20126;-78
2022/09/01 14:59:37;;;;;;;3.17;1.80;;;;;;;;;;10596643;27;20530;-75
2022/09/01 15:04:50;;;;;;;3.72;2.00;;;;;;;;;;10593927;27;20244;-77
2022/09/01 15:09:56;;;;;;;1.80;1.60;;;;;;;;;;10600902;27;20059;-77
2022/09/01 15:15:06;;;;;;;2.58;1.85;;;;;;;;;;10585103;27;20586;-77
2022/09/01 15:25:36;;;;;;;2.90;1.95;;;;;;;;;;10597531;27;20027;-76
2022/09/01 15:30:46;;;;;;;2.17;1.90;;;;;;;;;;10601893;27;20157;-76
2022/09/01 15:35:58;;;;;;;3.80;1.90;;;;;;;;;;10576802;27;20039;-77
2022/09/01 15:41:09;;;;;;;3.05;1.70;;;;;;;;;;10589597;27;20134;-75
2022/09/01 15:46:18;;;;;;;1.77;1.63;;;;;;;;;;10590526;27;20226;-74
2022/09/01 15:51:31;;;;;;;2.35;1.73;;;;;;;;;;10607854;27;20035;-74
2022/09/01 15:56:34;;;;;;;4.88;1.85;;;;;;;;;;10584902;27;20460;-74
2022/09/01 16:01:51;;;;;;;3.60;2.25;;;;;;;;;;10565974;27;20066;-75
2022/09/01 16:07:02;;;;;;;3.75;1.70;;;;;;;;;;10586981;27;20399;-73
2022/09/01 16:12:06;;;;;;;2.78;1.77;;;;;;;;;;10607858;27;20058;-75
2022/09/01 16:17:18;;;;;;;3.50;1.75;;;;;;;;;;10589262;27;20118;-74
2022/09/01 16:28:09;;;;;;;1.60;1.50;;;;;;;;;;10588588;27;20059;-74
2022/09/01 16:33:19;;;;;;;2.20;1.67;;;;;;;;;;10581552;27;20035;-74
2022/09/01 16:38:31;;;;;;;2.25;1.60;;;;;;;;;;10611378;27;20139;-74
2022/09/01 16:43:56;;;;;;;3.10;1.40;;;;;;;;;;10591933;27;20078;-78
2022/09/01 16:49:27;;;;;;;1.60;1.50;;;;;;;;;;10607868;27;20054;-76
2022/09/01 16:54:35;;;;;;;2.53;1.70;;;;;;;;;;10596996;27;20043;-76
2022/09/01 16:59:48;;;;;;;6.65;2.10;;;;;;;;;;10610600;27;20279;-76
2022/09/01 17:05:08;;;;;;;2.63;1.70;;;;;;;;;;10588814;27;20058;-77
2022/09/01 17:10:19;;;;;;;3.55;1.63;;;;;;;;;;10614357;27;20031;-76
2022/09/01 17:15:30;;;;;;;2.20;1.75;;;;;;;;;;10595742;27;20073;-79
2022/09/01 17:20:39;;;;;;;1.80;1.63;;;;;;;;;;10604499;27;20038;-75
2022/09/01 17:25:54;;;;;;;3.25;1.80;;;;;;;;;;10605477;27;20050;-76
2022/09/01 17:31:01;;;;;;;2.55;1.52;;;;;;;;;;10589619;27;20061;-76
2022/09/01 17:36:17;;;;;;;4.00;2.08;;;;;;;;;;10586545;27;20039;-77
2022/09/01 17:41:33;;;;;;;2.80;1.88;;;;;;;;;;10587001;27;20057;-77
2022/09/01 17:46:48;;;;;;;3.97;1.70;;;;;;;;;;10604542;27;20126;-77
2022/09/01 17:52:00;;;;;;;3.72;1.83;;;;;;;;;;10604995;27;20483;-77
2022/09/01 17:57:08;;;;;;;4.25;1.98;;;;;;;;;;10594859;27;20541;-77
2022/09/01 18:02:34;;;;;;;4.55;2.13;;;;;;;;;;10604825;27;20047;-77
2022/09/01 18:08:05;;;;;;;2.92;1.90;;;;;;;;;;10582129;27;20176;-77
2022/09/01 18:13:19;;;;;;;3.75;2.25;;;;;;;;;;10623306;27;20086;-77
2022/09/01 18:18:47;;;;;;;3.10;2.20;;;;;;;;;;10603686;27;20043;-76
2022/09/01 18:24:11;;;;;;;4.63;2.22;;;;;;;;;;10600396;27;20043;-78
2022/09/01 18:29:27;;;;;;;5.60;2.38;;;;;;;;;;10586944;28;20050;-77
2022/09/01 18:34:42;;;;;;;3.28;2.08;;;;;;;;;;10600314;28;20051;-76
2022/09/01 18:39:52;;;;;;;3.10;2.00;;;;;;;;;;10601239;28;20031;-75
2022/09/01 18:45:04;;;;;;;2.80;1.95;;;;;;;;;;10592461;27;20070;-78
2022/09/01 18:50:14;;;;;;;5.40;2.00;;;;;;;;;;10615192;27;20407;-76
2022/09/01 18:55:26;;;;;;;4.50;2.28;;;;;;;;;;10594221;27;20051;-78
2022/09/01 19:00:35;;;;;;;3.05;1.88;;;;;;;;;;10616298;27;20035;-76
2022/09/01 19:06:19;;;;;;;4.90;2.10;;;;;;;;;;10594763;27;20047;-77
2022/09/01 19:11:36;;;;;;;4.32;2.10;;;;;;;;;;10612792;27;20109;-77
2022/09/01 19:17:00;;;;;;;5.93;2.40;;;;;;;;;;10612358;27;20039;-76
2022/09/01 19:22:05;;;;;;;3.30;2.20;;;;;;;;;;10596486;27;20119;-76
2022/09/01 19:27:18;;;;;;;3.40;2.08;;;;;;;;;;10594456;27;20035;-79
2022/09/01 19:32:35;;;;;;;4.00;2.20;;;;;;;;;;10610598;27;20050;-76
2022/09/01 19:37:49;;;;;;;4.75;2.53;;;;;;;;;;10579765;27;20411;-77
2022/09/01 19:42:59;;;;;;;3.60;2.30;;;;;;;;;;10609787;27;20449;-77
2022/09/01 19:48:17;;;;;;;5.22;2.58;;;;;;;;;;10615330;27;20039;-76
2022/09/01 19:53:30;;;;;;;3.40;2.47;;;;;;;;;;10582979;27;20051;-75
2022/09/01 19:58:43;;;;;;;4.72;2.05;;;;;;;;;;10592630;27;20479;-75
2022/09/01 20:03:59;;;;;;;5.07;2.70;;;;;;;;;;10609453;27;20115;-77
2022/09/01 20:09:17;;;;;;;3.75;2.22;;;;;;;;;;10613823;27;20483;-77
2022/09/01 20:14:43;;;;;;;4.25;2.28;;;;;;;;;;10588923;27;20488;-76
2022/09/01 20:20:06;;;;;;;3.83;2.35;;;;;;;;;;10611480;27;20395;-75
2022/09/01 20:25:16;;;;;;;3.78;2.40;;;;;;;;;;10582588;27;20065;-78
2022/09/01 20:30:21;;;;;;;3.70;2.35;;;;;;;;;;10588415;27;20039;-77
2022/09/01 20:35:40;;;;;;;4.60;2.30;;;;;;;;;;10610761;27;20039;-75
2022/09/01 20:41:03;;;;;;;3.90;2.20;;;;;;;;;;10600855;27;20039;-75
2022/09/01 20:46:10;;;;;;;3.25;2.45;;;;;;;;;;10590343;27;20492;-75
2022/09/01 20:51:24;;;;;;;5.43;2.50;;;;;;;;;;10587593;27;20131;-74
2022/09/01 20:56:32;;;;;;;3.50;2.22;;;;;;;;;;10610840;27;20138;-74
2022/09/01 21:01:42;;;;;;;5.15;2.33;;;;;;;;;;10586143;27;20491;-76
2022/09/01 21:06:56;;;;;;;5.50;3.25;;;;;;;;;;10589897;27;20043;-73
2022/09/01 21:12:07;;;;;;;5.30;2.70;;;;;;;;;;10592154;27;20087;-74
2022/09/01 21:17:19;;;;;;;3.63;2.70;;;;;;;;;;10608462;27;20122;-74
2022/09/01 21:22:27;;;;;;;3.90;2.65;;;;;;;;;;10604522;27;20043;-75
2022/09/01 21:27:35;;;;;;;8.85;2.67;;;;;;;;;;10608174;27;20047;-75
2022/09/01 21:32:42;;;;;;;5.38;2.75;;;;;;;;;;10598394;27;20051;-74
2022/09/01 21:37:46;;;;;;;9.15;3.10;;;;;;;;;;10590424;27;20035;-76
2022/09/01 21:42:54;;;;;;;5.65;2.65;;;;;;;;;;10586316;27;20043;-76
2022/09/01 21:48:04;;;;;;;5.88;2.60;;;;;;;;;;10607860;27;20035;-74
2022/09/01 21:53:12;;;;;;;3.05;2.58;;;;;;;;;;10568004;27;20123;-75
2022/09/01 21:58:26;;;;;;;5.47;2.53;;;;;;;;;;10588508;27;20032;-75
2022/09/01 22:03:32;;;;;;;6.28;2.78;;;;;;;;;;10584563;27;20055;-76
2022/09/01 22:08:36;;;;;;;6.22;2.70;;;;;;;;;;10570626;27;20043;-76
2022/09/01 22:13:46;;;;;;;4.53;2.92;;;;;;;;;;10597864;27;20047;-75
2022/09/01 22:18:56;;;;;;;4.82;3.25;;;;;;;;;;10606774;27;20584;-75
2022/09/01 22:24:01;;;;;;;3.75;2.95;;;;;;;;;;10569010;27;20043;-75
2022/09/01 22:29:07;;;;;;;5.05;3.17;;;;;;;;;;10606635;27;20556;-75
2022/09/01 22:34:19;;;;;;;3.85;2.78;;;;;;;;;;10602225;27;20652;-74
2022/09/01 22:39:29;;;;;;;4.47;2.90;;;;;;;;;;10584150;28;20038;-74
2022/09/01 22:44:40;;;;;;;5.57;3.35;;;;;;;;;;10581551;28;20529;-73
2022/09/01 22:49:51;;;;;;;4.03;2.85;;;;;;;;;;10589262;27;20039;-75
2022/09/01 22:54:58;;;;;;;5.28;3.47;;;;;;;;;;10588164;27;20467;-75
2022/09/01 23:00:05;;;;;;;6.57;3.42;;;;;;;;;;10599008;27;20042;-75
2022/09/01 23:05:23;;;;;;;10.48;3.90;;;;;;;;;;10581399;28;20050;-74
2022/09/01 23:10:31;;;;;;;7.82;4.47;;;;;;;;;;10587136;27;20147;-75
2022/09/01 23:15:44;;;;;;;7.70;4.25;;;;;;;;;;10582944;27;20055;-74
2022/09/01 23:20:58;;;;;;;9.85;4.65;;;;;;;;;;10584530;27;20043;-75
2022/09/01 23:26:02;;;;;;;7.95;4.25;;;;;;;;;;10603950;27;20592;-74
2022/09/01 23:31:10;;;;;;;7.03;4.07;;;;;;;;;;10600790;27;20043;-74
2022/09/01 23:36:17;;;;;;;9.05;4.60;;;;;;;;;;10595482;27;20035;-75
2022/09/01 23:41:23;;;;;;;10.27;4.05;;;;;;;;;;10614394;27;20348;-74
2022/09/01 23:46:30;;;;;;;6.75;3.97;;;;;;;;;;10606215;27;20043;-75
2022/09/01 23:51:38;;;;;;;9.45;3.88;;;;;;;;;;10591238;27;20096;-76
2022/09/01 23:56:46;;;;;;;5.75;3.58;;;;;;;;;;10560312;27;20043;-73
